createdAt,value
2022-09-09T00:00:15.303Z,30.80
2022-09-09T00:02:46.530Z,30.80
2022-09-09T00:05:23.973Z,30.80
2022-09-09T00:07:54.675Z,30.80
2022-09-09T00:10:30.125Z,30.80
2022-09-09T00:13:07.745Z,30.80
2022-09-09T00:15:41.581Z,30.80
2022-09-09T00:18:18.354Z,30.80
2022-09-09T00:20:52.263Z,30.80
2022-09-09T00:23:27.022Z,30.70
2022-09-09T00:26:04.566Z,30.70
2022-09-09T00:28:35.305Z,30.70
2022-09-09T00:31:14.077Z,30.70
2022-09-09T00:33:43.785Z,30.70
2022-09-09T00:36:16.735Z,30.70
2022-09-09T00:38:48.510Z,30.70
2022-09-09T00:41:22.379Z,30.70
2022-09-09T00:43:59.147Z,30.70
2022-09-09T00:46:44.780Z,30.70
2022-09-09T00:49:26.727Z,30.70
2022-09-09T00:52:03.848Z,30.70
2022-09-09T00:54:42.708Z,30.70
2022-09-09T00:57:22.782Z,30.70
2022-09-09T00:59:54.209Z,30.60
2022-09-09T01:02:31.998Z,30.60
2022-09-09T01:05:06.245Z,30.60
2022-09-09T01:07:34.136Z,30.60
2022-09-09T01:10:07.881Z,30.60
2022-09-09T01:12:43.095Z,30.60
2022-09-09T01:15:13.846Z,30.60
2022-09-09T01:17:53.815Z,30.60
2022-09-09T01:20:27.530Z,30.60
2022-09-09T01:23:13.271Z,30.60
2022-09-09T01:26:15.501Z,30.60
2022-09-09T01:28:46.447Z,30.60
2022-09-09T01:31:19.083Z,30.60
2022-09-09T01:33:47.093Z,30.60
2022-09-09T01:36:21.613Z,30.60
2022-09-09T01:38:49.658Z,30.60
2022-09-09T01:41:19.113Z,30.50
2022-09-09T01:43:46.925Z,30.50
2022-09-09T01:46:15.440Z,30.50
2022-09-09T01:48:43.717Z,30.50
2022-09-09T01:51:12.217Z,30.50
2022-09-09T01:53:41.330Z,30.50
2022-09-09T01:56:17.760Z,30.50
2022-09-09T01:59:00.504Z,30.50
2022-09-09T02:01:42.327Z,30.50
2022-09-09T02:04:24.711Z,30.50
2022-09-09T02:06:57.246Z,30.50
2022-09-09T02:09:26.364Z,30.50
2022-09-09T02:12:00.121Z,30.50
2022-09-09T02:14:32.599Z,30.50
2022-09-09T02:17:05.716Z,30.50
2022-09-09T02:19:37.323Z,30.50
2022-09-09T02:22:06.251Z,30.50
2022-09-09T02:24:37.149Z,30.50
2022-09-09T02:27:09.826Z,30.40
2022-09-09T02:29:42.595Z,30.40
2022-09-09T02:32:14.061Z,30.40
2022-09-09T02:34:46.620Z,30.40
2022-09-09T02:37:17.186Z,30.40
2022-09-09T02:39:45.486Z,30.40
2022-09-09T02:42:15.816Z,30.40
2022-09-09T02:44:45.731Z,30.40
2022-09-09T02:47:26.155Z,30.40
2022-09-09T02:50:04.315Z,30.40
2022-09-09T02:52:38.340Z,30.40
2022-09-09T02:55:11.002Z,30.40
2022-09-09T02:57:40.074Z,30.40
2022-09-09T03:00:10.855Z,30.40
2022-09-09T03:02:39.548Z,30.40
2022-09-09T03:05:08.612Z,30.40
2022-09-09T03:07:36.331Z,30.40
2022-09-09T03:10:05.424Z,30.40
2022-09-09T03:12:34.775Z,30.30
2022-09-09T03:15:02.526Z,30.30
2022-09-09T03:17:31.797Z,30.30
2022-09-09T03:19:59.854Z,30.30
2022-09-09T03:22:27.625Z,30.30
2022-09-09T03:24:55.424Z,30.30
2022-09-09T03:27:23.183Z,30.30
2022-09-09T03:29:52.025Z,30.30
2022-09-09T03:32:20.032Z,30.30
2022-09-09T03:34:50.597Z,30.30
2022-09-09T03:37:18.783Z,30.30
2022-09-09T03:39:46.624Z,30.30
2022-09-09T03:42:15.729Z,30.30
2022-09-09T03:44:44.403Z,30.30
2022-09-09T03:47:12.129Z,30.30
2022-09-09T03:49:39.777Z,30.30
2022-09-09T03:52:10.238Z,30.30
2022-09-09T03:54:37.986Z,30.30
2022-09-09T03:57:07.206Z,30.30
2022-09-09T03:59:36.073Z,30.20
2022-09-09T04:02:04.024Z,30.20
2022-09-09T04:04:32.047Z,30.20
2022-09-09T04:06:59.736Z,30.20
2022-09-09T04:09:28.804Z,30.20
2022-09-09T04:11:56.843Z,30.20
2022-09-09T04:14:24.564Z,30.20
2022-09-09T04:16:52.276Z,30.20
2022-09-09T04:19:19.992Z,30.20
2022-09-09T04:21:51.028Z,30.20
2022-09-09T04:24:18.706Z,30.20
2022-09-09T04:26:48.212Z,30.20
2022-09-09T04:29:15.923Z,30.20
2022-09-09T04:31:44.197Z,30.20
2022-09-09T04:34:11.913Z,30.20
2022-09-09T04:36:41.369Z,30.20
2022-09-09T04:39:09.499Z,30.20
2022-09-09T04:41:37.186Z,30.20
2022-09-09T04:44:06.735Z,30.20
2022-09-09T04:46:35.349Z,30.20
2022-09-09T04:49:03.098Z,30.20
2022-09-09T04:51:32.207Z,30.10
2022-09-09T04:54:00.013Z,30.20
2022-09-09T04:56:29.282Z,30.10
2022-09-09T04:58:56.965Z,30.10
2022-09-09T05:01:26.698Z,30.10
2022-09-09T05:03:54.610Z,30.10
2022-09-09T05:06:24.215Z,30.10
2022-09-09T05:08:51.914Z,30.10
2022-09-09T05:11:22.307Z,30.10
2022-09-09T05:13:51.024Z,30.10
2022-09-09T05:16:19.866Z,30.10
2022-09-09T05:18:50.058Z,30.10
2022-09-09T05:21:19.031Z,30.10
2022-09-09T05:23:47.280Z,30.10
2022-09-09T05:26:17.976Z,30.10
2022-09-09T05:28:46.246Z,30.10
2022-09-09T05:31:15.387Z,30.10
2022-09-09T05:33:46.711Z,30.10
2022-09-09T05:36:17.722Z,30.10
2022-09-09T05:38:46.332Z,30.10
2022-09-09T05:41:16.601Z,30.10
2022-09-09T05:43:45.413Z,30.10
2022-09-09T05:46:15.304Z,30.10
2022-09-09T05:48:44.285Z,30.10
2022-09-09T05:51:14.244Z,30.00
2022-09-09T05:53:43.939Z,30.00
2022-09-09T05:56:13.426Z,30.00
2022-09-09T05:58:41.079Z,30.00
2022-09-09T06:01:10.917Z,30.00
2022-09-09T06:03:39.738Z,30.00
2022-09-09T06:06:09.254Z,30.00
2022-09-09T06:08:39.480Z,30.00
2022-09-09T06:11:11.644Z,30.00
2022-09-09T06:13:40.742Z,30.00
2022-09-09T06:16:12.437Z,30.00
2022-09-09T06:18:40.707Z,30.00
2022-09-09T06:21:13.520Z,30.00
2022-09-09T06:23:42.169Z,30.00
2022-09-09T06:26:14.343Z,30.00
2022-09-09T06:28:43.854Z,30.00
2022-09-09T06:31:13.485Z,30.00
2022-09-09T06:33:42.926Z,30.00
2022-09-09T06:36:14.247Z,30.00
2022-09-09T06:38:41.945Z,30.00
2022-09-09T06:41:12.598Z,30.00
2022-09-09T06:43:40.454Z,30.00
2022-09-09T06:46:11.178Z,30.00
2022-09-09T06:48:41.314Z,30.00
2022-09-09T06:51:11.111Z,30.00
2022-09-09T06:53:40.308Z,30.00
2022-09-09T06:56:22.713Z,30.00
2022-09-09T06:58:50.730Z,30.00
2022-09-09T07:01:20.719Z,30.00
2022-09-09T07:03:51.095Z,30.00
2022-09-09T07:06:21.028Z,30.00
2022-09-09T07:08:56.565Z,30.00
2022-09-09T07:11:28.092Z,30.00
2022-09-09T07:13:56.599Z,30.00
2022-09-09T07:16:25.792Z,30.00
2022-09-09T07:18:55.616Z,30.00
2022-09-09T07:21:23.298Z,30.00
2022-09-09T07:23:50.926Z,30.00
2022-09-09T07:26:20.475Z,30.00
2022-09-09T07:28:50.186Z,30.00
2022-09-09T07:31:19.918Z,30.00
2022-09-09T07:33:48.466Z,30.00
2022-09-09T07:36:22.697Z,30.00
2022-09-09T07:38:53.427Z,30.10
2022-09-09T07:41:22.984Z,30.00
2022-09-09T07:43:55.005Z,30.10
2022-09-09T07:46:25.185Z,30.10
2022-09-09T07:48:54.962Z,30.10
2022-09-09T07:51:25.232Z,30.10
2022-09-09T07:53:55.719Z,30.10
2022-09-09T07:56:24.801Z,30.10
2022-09-09T07:58:55.534Z,30.10
2022-09-09T08:01:25.816Z,30.10
2022-09-09T08:04:00.177Z,30.10
2022-09-09T08:06:28.537Z,30.10
2022-09-09T08:08:56.871Z,30.10
2022-09-09T08:11:26.631Z,30.10
2022-09-09T08:14:00.232Z,30.10
2022-09-09T08:16:32.004Z,30.20
2022-09-09T08:19:00.685Z,30.10
2022-09-09T08:21:31.310Z,30.10
2022-09-09T08:24:00.523Z,30.10
2022-09-09T08:26:29.490Z,30.10
2022-09-09T08:29:00.338Z,30.10
2022-09-09T08:31:30.256Z,30.10
2022-09-09T08:34:00.247Z,30.10
2022-09-09T08:36:30.350Z,30.10
2022-09-09T08:38:59.747Z,30.10
2022-09-09T08:41:48.751Z,30.10
2022-09-09T08:44:34.120Z,30.10
2022-09-09T08:47:09.267Z,30.10
2022-09-09T08:50:07.576Z,30.10
2022-09-09T08:52:42.191Z,30.10
2022-09-09T08:55:23.494Z,30.10
2022-09-09T08:57:53.466Z,30.10
2022-09-09T09:00:25.342Z,30.20
2022-09-09T09:03:06.833Z,30.20
2022-09-09T09:05:39.977Z,30.20
2022-09-09T09:08:18.959Z,30.20
2022-09-09T09:10:49.713Z,30.20
2022-09-09T09:13:22.143Z,30.20
2022-09-09T09:15:58.054Z,30.20
2022-09-09T09:18:25.738Z,30.20
2022-09-09T09:21:01.210Z,30.30
2022-09-09T09:23:44.859Z,30.30
2022-09-09T09:26:13.188Z,30.30
2022-09-09T09:28:42.537Z,30.30
2022-09-09T09:31:14.682Z,30.30
2022-09-09T09:33:49.332Z,30.30
2022-09-09T09:36:17.758Z,30.40
2022-09-09T09:41:46.667Z,30.40
2022-09-09T09:44:27.676Z,30.40
2022-09-09T09:47:08.951Z,30.40
2022-09-09T09:49:36.814Z,30.50
2022-09-09T09:52:05.536Z,30.50
2022-09-09T09:54:37.056Z,30.50
2022-09-09T09:57:13.056Z,30.50
2022-09-09T09:59:41.955Z,30.50
2022-09-09T10:02:20.348Z,30.50
2022-09-09T10:04:49.499Z,30.60
2022-09-09T10:07:21.310Z,30.60
2022-09-09T10:09:54.599Z,30.60
2022-09-09T10:12:32.814Z,30.60
2022-09-09T10:15:09.270Z,30.60
2022-09-09T10:17:57.020Z,30.60
2022-09-09T10:20:35.758Z,30.70
2022-09-09T10:23:13.971Z,30.70
2022-09-09T10:26:00.490Z,30.70
2022-09-09T10:28:44.358Z,30.70
2022-09-09T10:31:25.483Z,30.70
2022-09-09T10:34:08.217Z,30.70
2022-09-09T10:36:40.024Z,30.80
2022-09-09T10:39:20.547Z,30.80
2022-09-09T10:41:59.196Z,30.80
2022-09-09T10:44:37.832Z,30.80
2022-09-09T10:47:35.122Z,30.80
2022-09-09T10:50:20.425Z,30.80
2022-09-09T10:52:57.953Z,30.80
2022-09-09T10:55:30.059Z,30.90
2022-09-09T10:58:00.957Z,30.90
2022-09-09T11:00:39.287Z,30.90
2022-09-09T11:03:08.382Z,30.90
2022-09-09T11:05:43.425Z,30.90
2022-09-09T11:08:15.359Z,30.90
2022-09-09T11:10:49.690Z,30.90
2022-09-09T11:13:23.091Z,31.00
2022-09-09T11:15:54.272Z,31.00
2022-09-09T11:18:24.082Z,31.00
2022-09-09T11:21:02.491Z,31.00
2022-09-09T11:23:41.985Z,31.00
2022-09-09T11:26:14.731Z,31.00
2022-09-09T11:29:04.695Z,31.00
2022-09-09T11:31:48.337Z,31.00
2022-09-09T11:34:29.268Z,31.00
2022-09-09T11:37:33.225Z,31.00
2022-09-09T11:40:21.415Z,31.00
2022-09-09T11:42:50.814Z,31.10
2022-09-09T11:45:26.742Z,31.10
2022-09-09T11:47:56.217Z,31.10
2022-09-09T11:50:32.777Z,31.10
2022-09-09T11:53:20.339Z,31.10
2022-09-09T11:55:49.434Z,31.10
2022-09-09T11:58:20.172Z,31.10
2022-09-09T12:00:50.983Z,31.10
2022-09-09T12:03:40.182Z,31.10
2022-09-09T12:06:21.931Z,31.10
2022-09-09T12:08:56.131Z,31.10
2022-09-09T12:11:30.683Z,31.10
2022-09-09T12:14:00.617Z,31.10
2022-09-09T12:16:35.383Z,31.10
2022-09-09T12:19:09.380Z,31.10
2022-09-09T12:21:43.514Z,31.10
2022-09-09T12:24:13.083Z,31.20
2022-09-09T12:26:46.668Z,31.20
2022-09-09T12:29:25.809Z,31.20
2022-09-09T12:31:59.446Z,31.20
2022-09-09T12:34:36.827Z,31.20
2022-09-09T12:37:08.340Z,31.20
2022-09-09T12:39:43.564Z,31.20
2022-09-09T12:42:20.751Z,31.20
2022-09-09T12:44:56.998Z,31.20
2022-09-09T12:47:37.101Z,31.20
2022-09-09T12:50:05.920Z,31.20
2022-09-09T12:52:37.548Z,31.20
2022-09-09T12:55:09.421Z,31.20
2022-09-09T12:57:41.278Z,31.20
2022-09-09T13:00:16.752Z,31.20
2022-09-09T13:02:51.164Z,31.20
2022-09-09T13:05:21.366Z,31.20
2022-09-09T13:07:49.146Z,31.20
2022-09-09T13:10:36.392Z,31.20
2022-09-09T13:13:17.021Z,31.30
2022-09-09T13:15:51.979Z,31.20
2022-09-09T13:18:23.679Z,31.30
2022-09-09T13:20:53.072Z,31.30
2022-09-09T13:23:22.547Z,31.30
2022-09-09T13:25:59.295Z,31.30
2022-09-09T13:28:33.839Z,31.30
2022-09-09T13:31:04.163Z,31.30
2022-09-09T13:33:34.719Z,31.30
2022-09-09T13:36:05.464Z,31.30
2022-09-09T13:38:35.622Z,31.30
2022-09-09T13:41:05.739Z,31.30
2022-09-09T13:43:38.729Z,31.30
2022-09-09T13:46:25.277Z,31.30
2022-09-09T13:48:56.773Z,31.30
2022-09-09T13:51:34.288Z,31.30
2022-09-09T13:54:02.210Z,31.30
2022-09-09T13:56:30.038Z,31.30
2022-09-09T13:58:59.379Z,31.30
2022-09-09T14:01:29.658Z,31.30
2022-09-09T14:03:57.658Z,31.30
2022-09-09T14:06:25.425Z,31.30
2022-09-09T14:08:55.566Z,31.30
2022-09-09T14:11:23.365Z,31.30
2022-09-09T14:13:51.875Z,31.30
2022-09-09T14:16:21.396Z,31.30
2022-09-09T14:18:49.506Z,31.30
2022-09-09T14:21:17.412Z,31.30
2022-09-09T14:23:45.032Z,31.30
2022-09-09T14:26:12.616Z,31.30
2022-09-09T14:28:56.753Z,31.30
2022-09-09T14:31:30.744Z,31.30
2022-09-09T14:33:58.816Z,31.30
2022-09-09T14:36:26.779Z,31.30
2022-09-09T14:38:54.391Z,31.30
2022-09-09T14:41:23.868Z,31.30
2022-09-09T14:43:52.651Z,31.30
2022-09-09T14:46:21.741Z,31.30
2022-09-09T14:48:50.967Z,31.30
2022-09-09T14:51:21.510Z,31.30
2022-09-09T14:53:49.205Z,31.30
2022-09-09T14:56:18.644Z,31.30
2022-09-09T14:58:47.325Z,31.20
2022-09-09T15:01:17.143Z,31.20
2022-09-09T15:03:51.471Z,31.20
2022-09-09T15:06:21.540Z,31.20
2022-09-09T15:08:49.590Z,31.20
2022-09-09T15:11:17.382Z,31.20
2022-09-09T15:13:45.893Z,31.20
2022-09-09T15:16:15.914Z,31.20
2022-09-09T15:18:45.759Z,31.20
2022-09-09T15:21:14.095Z,31.20
2022-09-09T15:23:43.435Z,31.20
2022-09-09T15:26:11.862Z,31.20
2022-09-09T15:28:40.573Z,31.20
2022-09-09T15:31:11.847Z,31.20
2022-09-09T15:33:39.809Z,31.20
2022-09-09T15:36:19.052Z,31.20
2022-09-09T15:38:48.597Z,31.20
2022-09-09T15:41:17.005Z,31.10
2022-09-09T15:43:49.731Z,31.10
2022-09-09T15:46:37.010Z,31.10
2022-09-09T15:49:07.091Z,31.10
2022-09-09T15:51:42.779Z,31.10
2022-09-09T15:54:14.439Z,31.10
2022-09-09T15:56:42.863Z,31.10
2022-09-09T15:59:10.769Z,31.10
2022-09-09T16:01:40.516Z,31.10
2022-09-09T16:04:08.394Z,31.10
2022-09-09T16:06:36.147Z,31.10
2022-09-09T16:09:07.121Z,31.10
2022-09-09T16:11:38.048Z,31.10
2022-09-09T16:14:07.515Z,31.10
2022-09-09T16:16:36.085Z,31.00
2022-09-09T16:19:06.467Z,31.00
2022-09-09T16:21:36.802Z,31.00
2022-09-09T16:24:05.949Z,31.00
2022-09-09T16:26:37.444Z,31.00
2022-09-09T16:29:06.183Z,31.00
2022-09-09T16:31:34.914Z,31.00
2022-09-09T16:34:04.268Z,31.00
2022-09-09T16:36:35.090Z,31.00
2022-09-09T16:39:05.679Z,31.00
2022-09-09T16:41:34.142Z,31.00
2022-09-09T16:44:04.708Z,31.00
2022-09-09T16:46:34.958Z,31.00
2022-09-09T16:49:03.696Z,31.00
2022-09-09T16:51:33.180Z,31.00
2022-09-09T16:54:02.370Z,31.00
2022-09-09T16:56:33.931Z,31.00
2022-09-09T16:59:04.926Z,31.00
2022-09-09T17:01:36.011Z,31.00
2022-09-09T17:04:07.224Z,31.00
2022-09-09T17:06:37.733Z,31.00
2022-09-09T17:09:08.001Z,31.00
2022-09-09T17:11:36.432Z,31.00
2022-09-09T17:14:06.448Z,31.00
2022-09-09T17:16:36.190Z,31.00
2022-09-09T17:19:05.738Z,31.00
2022-09-09T17:21:35.282Z,31.00
2022-09-09T17:24:03.319Z,31.00
2022-09-09T17:26:34.075Z,31.00
2022-09-09T17:29:02.508Z,31.00
2022-09-09T17:31:33.619Z,31.00
2022-09-09T17:34:02.364Z,31.00
2022-09-09T17:36:32.127Z,31.00
2022-09-09T17:39:01.068Z,31.00
2022-09-09T17:41:30.589Z,30.90
2022-09-09T17:43:59.455Z,31.00
2022-09-09T17:46:29.111Z,30.90
2022-09-09T17:49:01.339Z,31.00
2022-09-09T17:51:32.051Z,30.90
2022-09-09T17:54:01.971Z,30.90
2022-09-09T17:56:32.631Z,30.90
2022-09-09T17:59:01.161Z,30.90
2022-09-09T18:01:31.212Z,30.90
2022-09-09T18:04:02.061Z,30.90
2022-09-09T18:06:32.936Z,30.90
2022-09-09T18:09:02.744Z,30.90
2022-09-09T18:11:33.191Z,30.90
2022-09-09T18:14:02.419Z,30.90
2022-09-09T18:16:31.714Z,30.90
2022-09-09T18:19:01.871Z,30.90
2022-09-09T18:21:33.146Z,30.90
2022-09-09T18:24:02.042Z,30.90
2022-09-09T18:26:30.348Z,30.90
2022-09-09T18:29:01.231Z,30.90
2022-09-09T18:31:30.112Z,30.90
2022-09-09T18:34:00.629Z,30.90
2022-09-09T18:36:30.162Z,30.90
2022-09-09T18:38:59.346Z,30.90
2022-09-09T18:41:28.731Z,30.90
2022-09-09T18:43:58.649Z,30.90
2022-09-09T18:46:28.317Z,30.80
2022-09-09T18:48:56.159Z,30.90
2022-09-09T18:51:27.003Z,30.90
2022-09-09T18:53:56.471Z,30.90
2022-09-09T18:56:24.748Z,30.90
2022-09-09T18:58:53.874Z,30.80
2022-09-09T19:01:21.520Z,30.90
2022-09-09T19:03:49.707Z,30.80
2022-09-09T19:06:19.339Z,30.80
2022-09-09T19:08:52.313Z,30.80
2022-09-09T19:11:24.195Z,30.80
2022-09-09T19:13:53.121Z,30.80
2022-09-09T19:16:23.117Z,30.80
2022-09-09T19:18:52.166Z,30.80
2022-09-09T19:21:23.084Z,30.80
2022-09-09T19:23:56.617Z,30.80
2022-09-09T19:26:25.326Z,30.80
2022-09-09T19:28:53.202Z,30.80
2022-09-09T19:31:23.116Z,30.80
2022-09-09T19:33:51.477Z,30.80
2022-09-09T19:36:20.792Z,30.80
2022-09-09T19:38:49.004Z,30.80
2022-09-09T19:41:20.100Z,30.80
2022-09-09T19:43:49.504Z,30.80
2022-09-09T19:46:18.779Z,30.80
2022-09-09T19:48:47.564Z,30.80
2022-09-09T19:51:18.467Z,30.80
2022-09-09T19:53:48.797Z,30.80
2022-09-09T19:56:18.891Z,30.80
2022-09-09T19:58:48.887Z,30.80
2022-09-09T20:01:18.674Z,30.80
2022-09-09T20:03:47.761Z,30.80
2022-09-09T20:06:18.019Z,30.80
2022-09-09T20:08:47.211Z,30.80
2022-09-09T20:11:16.595Z,30.80
2022-09-09T20:13:45.635Z,30.80
2022-09-09T20:16:15.419Z,30.80
2022-09-09T20:18:45.433Z,30.80
2022-09-09T20:21:16.241Z,30.80
2022-09-09T20:23:44.658Z,30.80
2022-09-09T20:26:14.208Z,30.80
2022-09-09T20:28:42.765Z,30.80
2022-09-09T20:31:14.868Z,30.80
2022-09-09T20:33:43.981Z,30.80
2022-09-09T20:36:12.916Z,30.80
2022-09-09T20:38:45.414Z,30.80
2022-09-09T20:41:14.988Z,30.80
2022-09-09T20:43:48.992Z,30.80
2022-09-09T20:46:19.359Z,30.80
2022-09-09T20:48:47.206Z,30.80
2022-09-09T20:51:17.250Z,30.70
2022-09-09T20:53:45.243Z,30.80
2022-09-09T20:56:16.964Z,30.70
2022-09-09T20:58:44.818Z,30.80
2022-09-09T21:01:16.567Z,30.70
2022-09-09T21:03:46.018Z,30.70
2022-09-09T21:06:15.335Z,30.70
2022-09-09T21:08:43.061Z,30.70
2022-09-09T21:11:11.316Z,30.70
2022-09-09T21:13:40.760Z,30.70
2022-09-09T21:16:11.901Z,30.70
2022-09-09T21:18:40.595Z,30.70
2022-09-09T21:21:09.639Z,30.70
2022-09-09T21:23:37.585Z,30.70
2022-09-09T21:26:06.596Z,30.70
2022-09-09T21:28:35.700Z,30.70
2022-09-09T21:31:04.390Z,30.70
2022-09-09T21:33:34.716Z,30.70
2022-09-09T21:36:07.284Z,30.70
2022-09-09T21:38:37.350Z,30.70
2022-09-09T21:41:05.504Z,30.70
2022-09-09T21:43:33.852Z,30.70
2022-09-09T21:46:03.956Z,30.70
2022-09-09T21:48:31.627Z,30.70
2022-09-09T21:51:04.605Z,30.70
2022-09-09T21:53:32.520Z,30.70
2022-09-09T21:56:05.697Z,30.70
2022-09-09T21:58:33.749Z,30.70
2022-09-09T22:01:01.331Z,30.70
2022-09-09T22:03:29.192Z,30.70
2022-09-09T22:05:56.815Z,30.70
2022-09-09T22:08:24.422Z,30.70
2022-09-09T22:10:52.023Z,30.70
2022-09-09T22:13:21.014Z,30.70
2022-09-09T22:15:48.873Z,30.70
2022-09-09T22:18:18.646Z,30.70
2022-09-09T22:20:47.174Z,30.60
2022-09-09T22:23:17.226Z,30.60
2022-09-09T22:25:44.868Z,30.60
2022-09-09T22:28:12.491Z,30.60
2022-09-09T22:30:41.423Z,30.60
2022-09-09T22:33:09.639Z,30.60
2022-09-09T22:35:42.318Z,30.60
2022-09-09T22:38:10.184Z,30.60
2022-09-09T22:40:38.086Z,30.60
2022-09-09T22:43:07.898Z,30.60
2022-09-09T22:45:35.792Z,30.60
2022-09-09T22:48:05.114Z,30.60
2022-09-09T22:50:40.105Z,30.60
2022-09-09T22:53:14.137Z,30.60
2022-09-09T22:55:42.240Z,30.60
2022-09-09T22:58:10.073Z,30.60
2022-09-09T23:00:41.779Z,30.60
2022-09-09T23:03:10.731Z,30.60
2022-09-09T23:05:38.470Z,30.60
2022-09-09T23:08:06.188Z,30.60
2022-09-09T23:10:33.800Z,30.60
2022-09-09T23:13:01.714Z,30.60
2022-09-09T23:15:31.252Z,30.50
2022-09-09T23:17:58.876Z,30.50
2022-09-09T23:20:28.203Z,30.50
2022-09-09T23:22:55.995Z,30.50
2022-09-09T23:25:23.842Z,30.50
2022-09-09T23:27:51.464Z,30.50
2022-09-09T23:30:19.823Z,30.50
2022-09-09T23:32:49.870Z,30.50
2022-09-09T23:35:17.707Z,30.50
2022-09-09T23:37:46.635Z,30.50
2022-09-09T23:40:14.368Z,30.50
2022-09-09T23:42:41.977Z,30.50
2022-09-09T23:45:10.940Z,30.50
2022-09-09T23:47:38.526Z,30.50
2022-09-09T23:50:07.711Z,30.50
2022-09-09T23:52:36.012Z,30.50
2022-09-09T23:55:06.381Z,30.40
2022-09-09T23:57:34.028Z,30.40
